Time;durP1;ratioP1;P1;durP2;ratioP2;P2;SDS_P1;SDS_P2;PMS_P1;PMS_P2;Temp;Humidity;BMP_temperature;BMP_pressure;BME280_temperature;BME280_humidity;BME280_pressure;Samples;Min_cycle;Max_cycle;Signal;HPM_P1;HPM_P2
2020/12/15 00:00:34;;;;;;;13.45;9.00;;;5.10;96.70;;;;;;4981743;28;20390;-83
2020/12/15 00:03:01;;;;;;;12.05;8.75;;;5.10;96.70;;;;;;4965847;28;20521;-82
2020/12/15 00:05:28;;;;;;;12.13;8.70;;;5.00;96.70;;;;;;4961824;28;20494;-83
2020/12/15 00:07:56;;;;;;;10.90;8.38;;;4.90;96.70;;;;;;4961940;28;20058;-83
2020/12/15 00:10:32;;;;;;;13.43;8.63;;;4.90;96.70;;;;;;4980000;28;20042;-82
2020/12/15 00:13:00;;;;;;;10.38;7.82;;;4.90;96.70;;;;;;4981071;28;20048;-83
2020/12/15 00:15:27;;;;;;;12.65;8.32;;;4.90;96.70;;;;;;4980842;28;20046;-82
2020/12/15 00:17:54;;;;;;;11.32;8.65;;;4.90;96.70;;;;;;4981669;28;20153;-83
2020/12/15 00:20:22;;;;;;;13.15;8.88;;;4.90;96.70;;;;;;4981644;28;20042;-82
2020/12/15 00:22:49;;;;;;;12.23;8.57;;;4.90;96.70;;;;;;4997343;28;20097;-82
2020/12/15 00:25:17;;;;;;;12.63;9.10;;;4.90;96.70;;;;;;4980592;28;20457;-82
2020/12/15 00:27:46;;;;;;;15.65;9.95;;;5.00;96.70;;;;;;4980464;28;20043;-82
2020/12/15 00:30:13;;;;;;;15.05;10.15;;;5.00;96.70;;;;;;4981945;28;20044;-83
2020/12/15 00:32:41;;;;;;;15.07;9.88;;;5.00;96.70;;;;;;4959192;28;20051;-82
2020/12/15 00:35:09;;;;;;;13.38;9.75;;;5.00;96.70;;;;;;4979955;28;20042;-83
2020/12/15 00:37:37;;;;;;;12.85;9.13;;;5.00;96.70;;;;;;4964480;28;20040;-82
2020/12/15 00:40:05;;;;;;;11.75;8.18;;;5.00;96.70;;;;;;4981790;28;20049;-82
2020/12/15 00:42:33;;;;;;;9.80;7.60;;;5.00;96.70;;;;;;4994238;28;20045;-83
2020/12/15 00:45:00;;;;;;;11.93;8.30;;;4.90;96.70;;;;;;4980088;28;20706;-83
2020/12/15 00:47:28;;;;;;;12.73;8.65;;;5.00;96.70;;;;;;4979091;28;20151;-83
2020/12/15 00:49:57;;;;;;;12.85;9.50;;;4.90;96.70;;;;;;4981202;28;20104;-83
2020/12/15 00:52:25;;;;;;;13.05;8.80;;;5.00;96.70;;;;;;4979674;28;20042;-83
2020/12/15 00:54:52;;;;;;;12.65;8.77;;;5.00;96.70;;;;;;4979843;28;20047;-84
2020/12/15 00:57:20;;;;;;;11.77;8.90;;;5.10;96.70;;;;;;4964911;28;20042;-84
2020/12/15 00:59:48;;;;;;;13.63;9.68;;;5.00;96.70;;;;;;4978531;28;20046;-83
2020/12/15 01:02:17;;;;;;;12.93;9.25;;;5.10;96.70;;;;;;4981022;28;20113;-83
2020/12/15 01:04:45;;;;;;;12.38;9.15;;;5.00;96.70;;;;;;4965455;28;20053;-82
2020/12/15 01:07:12;;;;;;;11.90;8.93;;;5.00;96.70;;;;;;4993321;28;20038;-84
2020/12/15 01:09:40;;;;;;;12.68;8.27;;;5.10;96.70;;;;;;4981856;28;20072;-83
2020/12/15 01:12:09;;;;;;;15.02;9.00;;;5.10;96.70;;;;;;4977675;28;20042;-83
2020/12/15 01:14:36;;;;;;;12.02;9.45;;;5.20;96.70;;;;;;5010717;28;20137;-84
2020/12/15 01:17:07;;;;;;;13.65;9.02;;;5.20;96.70;;;;;;4978385;28;20469;-84
2020/12/15 01:19:34;;;;;;;14.02;9.80;;;5.20;96.70;;;;;;4964051;28;20046;-84
2020/12/15 01:22:02;;;;;;;15.13;10.68;;;5.30;96.70;;;;;;4965145;28;20133;-84
2020/12/15 01:24:30;;;;;;;12.77;8.98;;;5.30;96.70;;;;;;4978955;28;20363;-84
2020/12/15 01:27:14;;;;;;;14.75;9.68;;;5.30;96.70;;;;;;4980722;28;20129;-83
2020/12/15 01:29:56;;;;;;;12.40;9.55;;;5.30;96.70;;;;;;5008980;28;20578;-84
2020/12/15 01:32:44;;;;;;;11.32;9.10;;;5.30;96.70;;;;;;4968035;28;20050;-82
2020/12/15 01:35:11;;;;;;;12.65;9.38;;;5.30;96.70;;;;;;4964173;28;20426;-83
2020/12/15 01:37:41;;;;;;;12.38;9.23;;;5.30;96.70;;;;;;4981753;28;20403;-84
2020/12/15 01:40:16;;;;;;;13.95;9.32;;;5.30;96.70;;;;;;4979814;28;20070;-83
2020/12/15 01:42:44;;;;;;;13.23;9.20;;;5.30;96.70;;;;;;4980573;28;20125;-83
2020/12/15 01:45:11;;;;;;;11.60;8.43;;;5.40;96.70;;;;;;4962654;28;20054;-83
2020/12/15 01:47:40;;;;;;;10.68;7.93;;;5.40;96.70;;;;;;4979469;28;20070;-84
2020/12/15 01:50:09;;;;;;;10.90;7.75;;;5.40;96.70;;;;;;4984587;28;20038;-83
2020/12/15 01:52:38;;;;;;;11.18;8.10;;;5.30;96.70;;;;;;4982102;28;20089;-84
2020/12/15 01:55:15;;;;;;;9.25;7.10;;;5.40;96.70;;;;;;4982858;28;20113;-85
2020/12/15 01:57:55;;;;;;;9.13;7.10;;;5.20;96.70;;;;;;4969284;28;20137;-81
2020/12/15 02:00:30;;;;;;;8.73;6.70;;;5.00;96.70;;;;;;4968468;28;20378;-81
2020/12/15 02:03:10;;;;;;;10.23;7.35;;;5.10;96.70;;;;;;4967337;28;20054;-79
2020/12/15 02:05:48;;;;;;;10.73;7.45;;;5.00;96.70;;;;;;4982184;28;20046;-81
2020/12/15 02:08:16;;;;;;;8.13;6.60;;;5.10;96.70;;;;;;4982413;28;20875;-80
2020/12/15 02:10:44;;;;;;;8.65;6.47;;;5.10;96.70;;;;;;4981367;28;20074;-81
2020/12/15 02:13:22;;;;;;;8.50;6.80;;;5.20;96.70;;;;;;4982962;28;20046;-81
2020/12/15 02:15:51;;;;;;;8.50;6.53;;;5.10;96.70;;;;;;4979868;28;20157;-81
2020/12/15 02:18:19;;;;;;;9.27;7.15;;;5.10;96.70;;;;;;4964588;28;20034;-81
2020/12/15 02:20:51;;;;;;;9.15;6.45;;;5.10;96.70;;;;;;5014509;28;20157;-81
2020/12/15 02:23:36;;;;;;;8.93;7.00;;;5.20;96.70;;;;;;4983402;28;20324;-81
2020/12/15 02:26:17;;;;;;;9.25;6.97;;;5.20;96.70;;;;;;4979272;28;20053;-80
2020/12/15 02:28:45;;;;;;;8.50;6.57;;;5.20;96.70;;;;;;4961352;28;20050;-81
2020/12/15 02:31:12;;;;;;;9.40;6.97;;;5.20;96.70;;;;;;4982781;28;20073;-80
2020/12/15 02:33:44;;;;;;;9.55;6.57;;;5.20;96.70;;;;;;4981686;28;20511;-82
2020/12/15 02:36:12;;;;;;;8.77;6.65;;;5.20;96.70;;;;;;4967154;28;20124;-81
2020/12/15 02:39:05;;;;;;;8.88;6.93;;;5.30;96.70;;;;;;4981964;28;20101;-81
2020/12/15 02:41:33;;;;;;;8.38;6.50;;;5.30;96.70;;;;;;4979319;28;20066;-81
2020/12/15 02:44:05;;;;;;;9.85;6.95;;;5.30;96.70;;;;;;4997949;28;20076;-81
2020/12/15 02:46:33;;;;;;;8.45;6.47;;;5.30;96.70;;;;;;4976702;28;20085;-82
2020/12/15 02:49:02;;;;;;;9.40;6.07;;;5.40;96.70;;;;;;4963260;28;20053;-81
2020/12/15 02:51:29;;;;;;;10.63;6.82;;;5.40;96.70;;;;;;4965015;28;20088;-81
2020/12/15 02:54:06;;;;;;;;;;;5.40;96.70;;;;;;4981086;28;20065;-80
2020/12/15 02:56:34;;;;;;;8.00;5.72;;;5.50;96.70;;;;;;4980000;28;20031;-81
2020/12/15 02:59:04;;;;;;;9.52;6.82;;;5.50;96.70;;;;;;4964536;28;20093;-81
2020/12/15 03:01:38;;;;;;;8.38;6.53;;;5.50;96.70;;;;;;4982252;28;20281;-81
2020/12/15 03:04:08;;;;;;;8.85;6.50;;;5.60;96.70;;;;;;4980913;28;20086;-81
2020/12/15 03:06:40;;;;;;;9.32;6.70;;;5.60;96.70;;;;;;4962185;28;20073;-81
2020/12/15 03:09:14;;;;;;;7.68;6.60;;;5.70;96.70;;;;;;4980455;28;20050;-81
2020/12/15 03:11:49;;;;;;;9.03;6.30;;;5.60;96.70;;;;;;4981197;28;20125;-81
2020/12/15 03:14:26;;;;;;;8.82;6.43;;;5.60;96.70;;;;;;4964607;28;20543;-81
2020/12/15 03:16:54;;;;;;;9.02;6.53;;;5.60;96.70;;;;;;4979617;28;20108;-81
2020/12/15 03:19:25;;;;;;;9.07;7.05;;;5.50;96.70;;;;;;4965616;28;20347;-81
2020/12/15 03:21:55;;;;;;;9.13;6.50;;;5.50;96.70;;;;;;4979523;28;20108;-81
2020/12/15 03:24:23;;;;;;;9.13;6.57;;;5.50;96.70;;;;;;4975505;28;20382;-80
2020/12/15 03:26:52;;;;;;;10.52;6.82;;;5.60;96.70;;;;;;4963279;28;20130;-80
2020/12/15 03:29:21;;;;;;;9.13;6.63;;;5.60;96.70;;;;;;4979080;28;21298;-81
2020/12/15 03:31:50;;;;;;;10.23;6.78;;;5.60;96.70;;;;;;4978418;28;20046;-81
2020/12/15 03:34:25;;;;;;;10.57;6.50;;;5.60;96.70;;;;;;4965248;28;20061;-81
2020/12/15 03:36:53;;;;;;;7.15;5.70;;;5.60;96.70;;;;;;4980266;28;20034;-81
2020/12/15 03:39:25;;;;;;;9.98;6.63;;;5.60;96.70;;;;;;4979017;28;20050;-81
2020/12/15 03:41:54;;;;;;;9.10;6.18;;;5.60;96.70;;;;;;4979187;28;20461;-81
2020/12/15 03:44:25;;;;;;;8.93;6.80;;;5.60;96.70;;;;;;5011259;28;20065;-81
2020/12/15 03:47:02;;;;;;;8.18;5.90;;;5.60;96.70;;;;;;4966095;28;20051;-81
2020/12/15 03:49:30;;;;;;;8.75;6.53;;;5.60;96.70;;;;;;4963688;28;20073;-81
2020/12/15 03:51:58;;;;;;;8.75;6.20;;;5.60;96.70;;;;;;4963517;28;20513;-81
2020/12/15 03:54:41;;;;;;;10.48;7.20;;;5.60;96.70;;;;;;4978853;28;20456;-81
2020/12/15 03:57:18;;;;;;;8.93;6.18;;;5.70;96.70;;;;;;4978906;28;20164;-81
2020/12/15 03:59:58;;;;;;;8.32;5.80;;;5.70;96.70;;;;;;4978974;28;20053;-81
2020/12/15 04:02:26;;;;;;;11.57;6.88;;;5.70;96.70;;;;;;4980204;28;20164;-81
2020/12/15 04:04:53;;;;;;;8.45;6.20;;;5.70;96.70;;;;;;4979258;28;20116;-81
2020/12/15 04:07:21;;;;;;;10.70;6.55;;;5.80;96.70;;;;;;4980823;28;20043;-81
2020/12/15 04:09:50;;;;;;;8.45;5.72;;;5.80;96.70;;;;;;4977733;28;20532;-81
2020/12/15 04:12:20;;;;;;;8.88;6.72;;;5.80;96.70;;;;;;4980837;28;20496;-81
2020/12/15 04:14:49;;;;;;;8.70;6.07;;;5.70;96.70;;;;;;4979715;28;20034;-81
2020/12/15 04:17:17;;;;;;;8.90;6.45;;;5.70;96.70;;;;;;4978538;28;20097;-81
2020/12/15 04:19:47;;;;;;;8.73;5.43;;;5.70;96.70;;;;;;4978956;28;20047;-81
2020/12/15 04:22:14;;;;;;;11.90;6.32;;;5.70;96.70;;;;;;4979876;28;20302;-80
2020/12/15 04:24:51;;;;;;;7.32;5.65;;;5.60;96.70;;;;;;4978950;28;20038;-81
2020/12/15 04:27:18;;;;;;;7.10;5.78;;;5.70;96.70;;;;;;4979062;28;20409;-81
2020/12/15 04:29:45;;;;;;;10.50;5.90;;;5.50;96.70;;;;;;4979254;28;20036;-81
2020/12/15 04:32:19;;;;;;;8.05;5.35;;;5.50;96.70;;;;;;4973481;28;20034;-80
2020/12/15 04:34:57;;;;;;;6.22;5.43;;;5.50;96.70;;;;;;4964033;28;20141;-81
2020/12/15 04:37:24;;;;;;;8.23;5.55;;;5.60;96.70;;;;;;4976210;28;20031;-81
2020/12/15 04:39:57;;;;;;;7.65;5.68;;;5.60;96.70;;;;;;4979272;28;20053;-81
2020/12/15 04:42:35;;;;;;;11.00;5.35;;;5.50;96.70;;;;;;4988927;28;20117;-80
2020/12/15 04:45:04;;;;;;;7.25;5.30;;;5.60;96.70;;;;;;4979435;28;20041;-81
2020/12/15 04:47:43;;;;;;;7.78;5.55;;;5.60;96.70;;;;;;4979452;28;20054;-79
2020/12/15 04:50:24;;;;;;;7.05;5.60;;;5.60;96.70;;;;;;4979365;28;20039;-78
2020/12/15 04:53:09;;;;;;;7.95;5.25;;;5.60;96.70;;;;;;4980190;28;20053;-81
2020/12/15 04:55:57;;;;;;;6.93;5.30;;;5.60;96.70;;;;;;4994047;28;20053;-83
2020/12/15 04:58:33;;;;;;;7.55;5.70;;;5.60;96.70;;;;;;4979735;28;20046;-83
2020/12/15 05:01:02;;;;;;;7.72;5.35;;;5.70;96.70;;;;;;4964651;28;20524;-82
2020/12/15 05:03:51;;;;;;;8.10;6.05;;;5.70;96.70;;;;;;4978939;28;20515;-82
2020/12/15 05:06:24;;;;;;;13.63;8.20;;;5.80;96.70;;;;;;4978249;28;20070;-82
2020/12/15 05:08:52;;;;;;;24.13;14.07;;;5.70;96.70;;;;;;4980466;28;20694;-82
2020/12/15 05:11:22;;;;;;;21.15;11.85;;;5.70;96.70;;;;;;4979591;28;20503;-82
2020/12/15 05:13:59;;;;;;;12.10;8.13;;;5.70;96.70;;;;;;4967340;28;20157;-82
2020/12/15 05:16:37;;;;;;;9.27;6.45;;;5.60;96.70;;;;;;4978948;28;20046;-82
2020/12/15 05:19:22;;;;;;;8.60;6.20;;;5.60;96.70;;;;;;4977389;28;20049;-82
2020/12/15 05:21:53;;;;;;;7.90;5.75;;;5.60;96.70;;;;;;4964562;28;20050;-83
2020/12/15 05:24:22;;;;;;;7.85;5.43;;;5.60;96.70;;;;;;4965879;28;20038;-83
2020/12/15 05:26:54;;;;;;;7.45;5.63;;;5.60;96.70;;;;;;4982372;28;20135;-83
2020/12/15 05:29:22;;;;;;;7.80;6.13;;;5.60;96.70;;;;;;4984162;28;20627;-82
2020/12/15 05:32:07;;;;;;;7.50;5.60;;;5.70;96.70;;;;;;4984774;28;20042;-83
2020/12/15 05:35:04;;;;;;;10.38;6.18;;;5.70;96.70;;;;;;4996828;28;20126;-83
2020/12/15 05:37:44;;;;;;;13.50;9.20;;;5.80;96.70;;;;;;4983724;28;20108;-83
2020/12/15 05:40:21;;;;;;;13.35;10.63;;;5.90;96.70;;;;;;4979685;28;20046;-84
2020/12/15 05:43:09;;;;;;;;;;;5.90;96.70;;;;;;4984159;28;20077;-84
2020/12/15 05:45:36;;;;;;;10.93;7.82;;;5.80;96.70;;;;;;4984031;28;19988;-83
2020/12/15 05:48:05;;;;;;;10.98;7.63;;;5.70;96.70;;;;;;4983826;28;20137;-82
2020/12/15 05:50:33;;;;;;;7.63;6.28;;;5.70;96.70;;;;;;4983961;28;20186;-84
2020/12/15 05:53:03;;;;;;;11.20;6.57;;;5.70;96.70;;;;;;4985584;28;20377;-83
2020/12/15 05:55:30;;;;;;;8.00;6.45;;;5.70;96.70;;;;;;4967524;28;20145;-83
2020/12/15 05:57:59;;;;;;;7.85;5.93;;;5.70;96.70;;;;;;4984486;28;20058;-83
2020/12/15 06:00:29;;;;;;;8.30;6.15;;;5.70;96.70;;;;;;4999172;28;20050;-83
2020/12/15 06:02:58;;;;;;;8.80;6.53;;;5.70;96.70;;;;;;4970241;28;20497;-83
2020/12/15 06:05:27;;;;;;;8.80;7.00;;;5.70;96.70;;;;;;4984452;28;20084;-83
2020/12/15 06:07:56;;;;;;;7.72;6.03;;;5.70;96.70;;;;;;4964974;28;20073;-83
2020/12/15 06:10:24;;;;;;;7.53;5.38;;;5.70;96.70;;;;;;4967557;28;20041;-83
2020/12/15 06:12:52;;;;;;;7.00;5.53;;;5.60;96.70;;;;;;4986533;28;20117;-82
2020/12/15 06:15:19;;;;;;;7.97;5.55;;;5.70;96.70;;;;;;4966988;28;20045;-83
2020/12/15 06:17:49;;;;;;;8.68;5.70;;;5.70;96.70;;;;;;4982914;28;20046;-83
2020/12/15 06:20:19;;;;;;;7.78;5.80;;;5.70;96.70;;;;;;4983671;28;20384;-83
2020/12/15 06:22:47;;;;;;;10.98;5.90;;;5.70;96.70;;;;;;4981330;28;20047;-83
2020/12/15 06:25:25;;;;;;;6.22;5.40;;;5.70;96.70;;;;;;4984680;28;20042;-83
2020/12/15 06:28:02;;;;;;;6.57;5.40;;;5.60;96.70;;;;;;4980385;28;20137;-83
2020/12/15 06:30:30;;;;;;;7.95;5.90;;;5.70;96.70;;;;;;4967529;28;20066;-82
2020/12/15 06:33:00;;;;;;;8.27;6.18;;;5.70;96.70;;;;;;4966583;28;20455;-83
2020/12/15 06:35:27;;;;;;;8.50;6.53;;;5.70;96.70;;;;;;4965254;28;20042;-83
2020/12/15 06:37:55;;;;;;;8.82;6.57;;;5.70;96.70;;;;;;4967677;28;20382;-83
2020/12/15 06:40:22;;;;;;;9.68;7.15;;;5.70;96.70;;;;;;4982382;28;20050;-83
2020/12/15 06:42:51;;;;;;;11.93;7.30;;;5.70;96.70;;;;;;4984127;28;20038;-84
2020/12/15 06:45:22;;;;;;;8.70;6.35;;;5.70;96.70;;;;;;4983095;28;20054;-83
2020/12/15 06:47:59;;;;;;;9.32;6.32;;;5.70;96.70;;;;;;4982450;28;20137;-84
2020/12/15 06:50:26;;;;;;;11.00;6.85;;;5.70;96.70;;;;;;4983543;28;20117;-83
2020/12/15 06:52:54;;;;;;;9.07;7.00;;;5.70;96.70;;;;;;4981325;28;20035;-83
2020/12/15 06:55:29;;;;;;;9.68;6.53;;;5.70;96.70;;;;;;4982387;28;20049;-86
2020/12/15 06:57:59;;;;;;;10.45;7.28;;;5.70;96.70;;;;;;4967923;28;20073;-86
2020/12/15 07:00:35;;;;;;;8.20;6.25;;;5.70;96.70;;;;;;4982548;28;22047;-80
2020/12/15 07:03:05;;;;;;;9.45;7.05;;;5.80;96.70;;;;;;4984992;28;20043;-84
2020/12/15 07:05:34;;;;;;;10.57;6.30;;;5.80;96.70;;;;;;4981463;28;20078;-85
2020/12/15 07:08:06;;;;;;;7.32;5.72;;;5.80;96.70;;;;;;4980777;28;20183;-88
2020/12/15 07:10:34;;;;;;;7.28;5.63;;;5.80;96.70;;;;;;4977753;28;20035;-80
2020/12/15 07:13:02;;;;;;;8.75;5.65;;;5.80;96.70;;;;;;4963596;28;20417;-80
2020/12/15 07:15:32;;;;;;;9.80;5.57;;;5.90;96.70;;;;;;4959388;28;20145;-87
2020/12/15 07:18:02;;;;;;;8.02;5.85;;;5.80;96.70;;;;;;4993516;28;20148;-82
2020/12/15 07:20:31;;;;;;;6.93;5.32;;;5.80;96.70;;;;;;4995121;28;20485;-82
2020/12/15 07:22:58;;;;;;;7.50;5.38;;;6.00;96.70;;;;;;4983007;28;20076;-82
2020/12/15 07:25:25;;;;;;;9.27;5.40;;;6.00;96.70;;;;;;4953980;28;20030;-82
2020/12/15 07:27:53;;;;;;;7.53;5.05;;;6.00;96.70;;;;;;4981850;28;20053;-81
2020/12/15 07:30:22;;;;;;;8.05;5.30;;;5.90;96.70;;;;;;4983822;28;20043;-82
2020/12/15 07:32:50;;;;;;;10.13;6.63;;;5.90;96.70;;;;;;4994984;28;20497;-81
2020/12/15 07:35:23;;;;;;;7.65;5.78;;;5.80;96.70;;;;;;4979205;28;20085;-81
2020/12/15 07:37:57;;;;;;;9.68;5.65;;;5.90;96.70;;;;;;4981083;28;20058;-81
2020/12/15 07:40:29;;;;;;;7.75;6.00;;;5.80;96.70;;;;;;4965338;28;20157;-81
2020/12/15 07:42:59;;;;;;;8.40;5.93;;;5.90;96.70;;;;;;4979999;28;20059;-81
2020/12/15 07:45:28;;;;;;;9.55;6.53;;;5.90;96.70;;;;;;4979036;28;20041;-83
2020/12/15 07:47:58;;;;;;;9.95;6.60;;;6.00;96.70;;;;;;4977604;28;20404;-81
2020/12/15 07:50:28;;;;;;;8.38;6.03;;;6.00;96.70;;;;;;4980584;28;20050;-84
2020/12/15 07:53:06;;;;;;;7.15;5.32;;;6.00;96.70;;;;;;4983051;28;20372;-84
2020/12/15 07:55:34;;;;;;;8.45;5.82;;;6.00;96.70;;;;;;4963172;28;20476;-81
2020/12/15 07:58:05;;;;;;;10.00;6.75;;;6.00;96.70;;;;;;4962563;28;20038;-83
2020/12/15 08:00:35;;;;;;;8.52;5.85;;;6.00;96.70;;;;;;4960195;28;20046;-81
2020/12/15 08:03:05;;;;;;;11.45;7.60;;;6.00;96.70;;;;;;4962262;28;20663;-80
2020/12/15 08:05:35;;;;;;;14.85;8.25;;;6.10;96.70;;;;;;4975723;28;20129;-78
2020/12/15 08:08:07;;;;;;;9.77;6.22;;;6.10;96.70;;;;;;4978298;28;20042;-81
2020/12/15 08:10:35;;;;;;;9.07;6.70;;;6.10;96.70;;;;;;4979869;28;20129;-81
2020/12/15 08:13:06;;;;;;;10.60;6.10;;;6.10;96.70;;;;;;4958873;28;20070;-83
2020/12/15 08:15:38;;;;;;;9.77;7.35;;;6.20;96.70;;;;;;4977808;28;20038;-81
2020/12/15 08:18:10;;;;;;;9.18;6.35;;;6.20;96.70;;;;;;4964178;28;20526;-81
2020/12/15 08:20:41;;;;;;;10.68;6.22;;;6.20;96.70;;;;;;4980891;28;20074;-80
2020/12/15 08:23:11;;;;;;;9.05;5.88;;;6.20;96.70;;;;;;4979109;28;20436;-83
2020/12/15 08:25:43;;;;;;;10.38;5.63;;;6.30;96.70;;;;;;4980146;28;20523;-83
2020/12/15 08:28:12;;;;;;;10.00;6.15;;;6.30;96.70;;;;;;4974547;28;20047;-82
2020/12/15 08:30:41;;;;;;;7.32;5.20;;;6.30;96.70;;;;;;4980871;28;20311;-84
2020/12/15 08:33:09;;;;;;;7.57;5.13;;;6.40;96.70;;;;;;4962419;28;20427;-85
2020/12/15 08:35:38;;;;;;;6.88;5.68;;;6.40;96.70;;;;;;4963644;28;20041;-83
2020/12/15 08:38:09;;;;;;;11.18;6.63;;;6.50;96.70;;;;;;4963474;28;20590;-86
2020/12/15 08:40:36;;;;;;;8.73;7.10;;;6.60;96.70;;;;;;4966361;28;20128;-84
2020/12/15 08:43:05;;;;;;;7.57;5.80;;;6.70;96.70;;;;;;5009548;28;20057;-84
2020/12/15 08:45:32;;;;;;;7.15;5.82;;;6.70;96.70;;;;;;4964487;28;20043;-87
2020/12/15 08:48:00;;;;;;;8.40;5.65;;;6.80;96.70;;;;;;4980534;28;20034;-88
2020/12/15 08:50:30;;;;;;;6.90;5.55;;;6.90;96.70;;;;;;4980734;28;20046;-80
2020/12/15 08:53:15;;;;;;;;;;;6.90;96.70;;;;;;4978764;28;20105;-82
2020/12/15 08:55:45;;;;;;;6.82;5.20;;;6.90;96.70;;;;;;4961549;28;19984;-84
2020/12/15 08:58:13;;;;;;;8.60;5.68;;;7.00;96.70;;;;;;4960212;28;20604;-83
2020/12/15 09:00:46;;;;;;;6.88;5.60;;;7.10;96.70;;;;;;4984090;28;20038;-82
2020/12/15 09:03:15;;;;;;;7.53;5.80;;;7.10;96.70;;;;;;4982686;28;20045;-84
2020/12/15 09:05:47;;;;;;;6.70;5.50;;;7.20;96.70;;;;;;4981459;28;20568;-80
2020/12/15 09:08:15;;;;;;;6.40;5.30;;;7.30;96.70;;;;;;4978460;28;20056;-84
2020/12/15 09:10:43;;;;;;;7.63;5.47;;;7.40;96.70;;;;;;4984986;28;20049;-85
2020/12/15 09:13:11;;;;;;;7.30;5.95;;;7.50;96.70;;;;;;4982062;28;20508;-82
2020/12/15 09:15:46;;;;;;;7.15;4.97;;;7.60;96.70;;;;;;4965560;28;20038;-83
2020/12/15 09:18:15;;;;;;;8.68;6.20;;;7.60;96.70;;;;;;4982498;28;20574;-81
2020/12/15 09:20:43;;;;;;;9.50;6.20;;;7.70;96.70;;;;;;4966484;28;20208;-83
2020/12/15 09:23:14;;;;;;;7.93;6.40;;;7.70;96.70;;;;;;4996047;28;20065;-82
2020/12/15 09:25:42;;;;;;;10.57;6.53;;;7.80;96.70;;;;;;4994544;28;20831;-82
2020/12/15 09:28:12;;;;;;;13.35;7.90;;;7.80;96.70;;;;;;4979559;28;20042;-87
2020/12/15 09:30:40;;;;;;;27.35;13.55;;;7.90;96.70;;;;;;4982239;28;20052;-84
2020/12/15 09:33:09;;;;;;;35.80;23.75;;;8.00;96.70;;;;;;4983144;28;20042;-82
2020/12/15 09:35:39;;;;;;;17.05;11.10;;;8.10;96.70;;;;;;4988782;28;20134;-81
2020/12/15 09:38:07;;;;;;;16.30;10.60;;;8.10;96.70;;;;;;4977259;28;20069;-79
2020/12/15 09:40:34;;;;;;;15.98;10.07;;;8.20;96.70;;;;;;4980034;28;20038;-81
2020/12/15 09:43:03;;;;;;;16.70;9.90;;;8.20;96.70;;;;;;4960445;28;20591;-80
2020/12/15 09:45:30;;;;;;;13.32;10.07;;;8.30;96.70;;;;;;4977439;28;20039;-79
2020/12/15 09:47:59;;;;;;;14.57;10.07;;;8.40;96.70;;;;;;4965169;28;20796;-80
2020/12/15 09:50:27;;;;;;;14.43;11.20;;;8.40;96.70;;;;;;4978740;28;20038;-79
2020/12/15 09:53:02;;;;;;;16.20;10.73;;;8.50;96.70;;;;;;4978158;28;20509;-80
2020/12/15 09:55:30;;;;;;;14.77;10.10;;;8.50;96.70;;;;;;4964316;28;20046;-81
2020/12/15 09:58:00;;;;;;;12.25;9.63;;;8.50;96.70;;;;;;4978391;28;20050;-82
2020/12/15 10:00:28;;;;;;;13.90;9.18;;;8.60;96.70;;;;;;4966842;28;20276;-82
2020/12/15 10:02:55;;;;;;;11.65;8.65;;;8.60;96.70;;;;;;4981106;28;20140;-82
2020/12/15 10:05:23;;;;;;;12.95;8.65;;;8.60;96.70;;;;;;4979891;28;20068;-81
2020/12/15 10:07:50;;;;;;;11.38;8.63;;;8.60;96.70;;;;;;4984062;28;20473;-81
2020/12/15 10:10:18;;;;;;;13.55;8.75;;;8.70;96.70;;;;;;4965289;28;20038;-81
2020/12/15 10:12:45;;;;;;;11.18;8.43;;;8.80;96.70;;;;;;4976977;28;20042;-79
2020/12/15 10:15:13;;;;;;;10.80;8.35;;;8.90;96.70;;;;;;4976998;28;20533;-83
2020/12/15 10:17:41;;;;;;;10.95;8.13;;;9.00;96.70;;;;;;4982879;28;20034;-83
2020/12/15 10:20:09;;;;;;;9.32;6.97;;;9.20;96.70;;;;;;4980881;28;20051;-82
2020/12/15 10:22:36;;;;;;;9.60;7.50;;;9.20;96.70;;;;;;4966957;28;20623;-82
2020/12/15 10:25:04;;;;;;;8.65;6.82;;;9.20;96.70;;;;;;4983124;28;20093;-84
2020/12/15 10:27:31;;;;;;;7.97;6.63;;;9.20;96.70;;;;;;4978933;28;20492;-81
2020/12/15 10:29:59;;;;;;;9.48;6.88;;;9.20;96.70;;;;;;4978305;28;20157;-82
2020/12/15 10:32:27;;;;;;;39.58;30.63;;;9.30;96.70;;;;;;4981415;28;20045;-81
2020/12/15 10:34:56;;;;;;;28.25;21.50;;;9.30;96.70;;;;;;4963981;28;20034;-83
2020/12/15 10:37:25;;;;;;;14.85;11.98;;;9.30;96.70;;;;;;4966123;28;20799;-83
2020/12/15 10:39:52;;;;;;;11.05;8.55;;;9.40;96.70;;;;;;4981100;28;20038;-84
2020/12/15 10:42:20;;;;;;;10.75;8.15;;;9.50;96.70;;;;;;4964076;28;20054;-86
2020/12/15 10:44:47;;;;;;;10.25;7.70;;;9.60;96.70;;;;;;4982332;28;20085;-83
2020/12/15 10:47:15;;;;;;;10.25;7.22;;;9.60;96.70;;;;;;4981001;28;20038;-84
2020/12/15 10:49:43;;;;;;;10.68;7.82;;;9.70;96.70;;;;;;5012755;28;20050;-85
2020/12/15 10:52:11;;;;;;;10.60;6.95;;;9.70;96.70;;;;;;5015717;28;20043;-84
2020/12/15 10:54:38;;;;;;;9.93;7.65;;;9.70;96.70;;;;;;4977693;28;20043;-84
2020/12/15 10:57:06;;;;;;;9.95;7.35;;;9.70;96.70;;;;;;4965016;28;20137;-81
2020/12/15 10:59:33;;;;;;;11.35;7.78;;;9.70;96.70;;;;;;4981027;28;20097;-80
2020/12/15 11:02:01;;;;;;;9.68;6.70;;;9.70;96.70;;;;;;4980136;28;20050;-80
2020/12/15 11:04:29;;;;;;;9.50;6.80;;;9.70;96.70;;;;;;4980594;28;20496;-80
2020/12/15 11:06:56;;;;;;;10.77;6.82;;;9.70;96.70;;;;;;4960012;28;20579;-77
2020/12/15 11:09:25;;;;;;;9.65;7.05;;;9.80;96.70;;;;;;4980201;28;20476;-80
2020/12/15 11:11:52;;;;;;;10.75;6.80;;;9.80;96.70;;;;;;4980179;28;20124;-79
2020/12/15 11:14:20;;;;;;;9.68;6.50;;;9.90;96.70;;;;;;4963429;28;20422;-79
2020/12/15 11:17:02;;;;;;;9.27;6.97;;;10.10;96.70;;;;;;4977779;28;20060;-79
2020/12/15 11:19:34;;;;;;;12.25;7.22;;;10.20;96.70;;;;;;4979651;28;20409;-80
2020/12/15 11:22:02;;;;;;;9.30;6.78;;;10.30;96.70;;;;;;4977925;28;20053;-80
2020/12/15 11:24:32;;;;;;;10.00;7.00;;;10.40;96.70;;;;;;4977465;28;20096;-79
2020/12/15 11:27:00;;;;;;;8.35;6.50;;;10.50;96.70;;;;;;4990625;28;20373;-79
2020/12/15 11:29:27;;;;;;;9.48;6.60;;;10.50;96.70;;;;;;4962924;28;20034;-77
2020/12/15 11:31:57;;;;;;;9.27;6.63;;;10.60;96.70;;;;;;4980370;28;20566;-78
2020/12/15 11:34:25;;;;;;;8.10;6.18;;;10.60;96.70;;;;;;4979121;28;20077;-78
2020/12/15 11:36:53;;;;;;;7.95;6.63;;;10.60;96.70;;;;;;4981000;28;20568;-81
2020/12/15 11:39:21;;;;;;;8.13;6.53;;;10.60;96.70;;;;;;4966622;28;20119;-81
2020/12/15 11:41:50;;;;;;;9.45;6.85;;;10.60;96.70;;;;;;4977638;28;20619;-82
2020/12/15 11:44:18;;;;;;;13.45;7.50;;;10.70;96.70;;;;;;4979719;28;20041;-83
2020/12/15 11:46:58;;;;;;;9.63;6.78;;;10.70;96.70;;;;;;4978142;28;20402;-82
2020/12/15 11:49:26;;;;;;;9.38;7.35;;;10.80;96.70;;;;;;4979479;28;20038;-82
2020/12/15 11:51:53;;;;;;;10.20;7.45;;;10.90;96.70;;;;;;4979988;28;20480;-84
2020/12/15 11:54:22;;;;;;;7.55;6.22;;;10.90;96.70;;;;;;4966009;28;20046;-83
2020/12/15 11:56:51;;;;;;;8.70;6.63;;;10.90;96.70;;;;;;4979374;28;20073;-82
2020/12/15 11:59:21;;;;;;;8.95;6.35;;;11.10;96.70;;;;;;4961783;28;20511;-83
2020/12/15 12:01:48;;;;;;;6.38;5.70;;;11.00;96.70;;;;;;4979936;28;20145;-81
2020/12/15 12:04:16;;;;;;;8.73;6.32;;;11.00;96.70;;;;;;4971339;28;20165;-85
2020/12/15 12:06:43;;;;;;;9.68;6.63;;;11.00;96.70;;;;;;4964695;28;20034;-82
2020/12/15 12:09:11;;;;;;;8.68;6.85;;;11.10;96.70;;;;;;4963911;28;20230;-83
2020/12/15 12:11:38;;;;;;;11.90;7.18;;;11.10;96.70;;;;;;4978062;28;20049;-82
2020/12/15 12:14:07;;;;;;;8.48;6.50;;;11.10;96.70;;;;;;4977055;28;20050;-82
2020/12/15 12:16:35;;;;;;;8.50;5.75;;;11.20;96.70;;;;;;4979449;28;20121;-82
2020/12/15 12:19:03;;;;;;;8.88;6.00;;;11.20;96.70;;;;;;4979233;28;20581;-82
2020/12/15 12:21:33;;;;;;;8.00;5.95;;;11.20;96.70;;;;;;4960787;28;20208;-83
2020/12/15 12:24:01;;;;;;;7.82;5.82;;;11.20;96.70;;;;;;4964455;28;20066;-82
2020/12/15 12:26:29;;;;;;;6.18;5.32;;;11.20;96.70;;;;;;4978947;28;20068;-82
2020/12/15 12:28:57;;;;;;;10.35;6.35;;;11.20;96.70;;;;;;4980393;28;20046;-83
2020/12/15 12:31:25;;;;;;;8.15;6.35;;;11.20;96.70;;;;;;5005633;28;20042;-82
2020/12/15 12:33:52;;;;;;;8.13;5.53;;;11.50;96.70;;;;;;4964947;28;20046;-83
2020/12/15 12:36:20;;;;;;;10.82;8.18;;;11.70;96.70;;;;;;4978142;28;20041;-80
2020/12/15 12:38:48;;;;;;;8.63;6.32;;;12.00;96.70;;;;;;4976815;28;20050;-78
2020/12/15 12:41:15;;;;;;;7.55;5.50;;;12.00;96.70;;;;;;4971735;28;20048;-78
2020/12/15 12:43:43;;;;;;;7.50;5.43;;;12.10;96.70;;;;;;4963017;28;20412;-81
2020/12/15 12:46:14;;;;;;;16.15;12.23;;;12.00;96.70;;;;;;4989066;28;20042;-80
2020/12/15 12:48:43;;;;;;;18.25;13.73;;;11.90;96.70;;;;;;4961559;28;20046;-80
2020/12/15 12:51:11;;;;;;;10.48;7.72;;;11.90;96.70;;;;;;4978390;28;20615;-82
2020/12/15 12:53:41;;;;;;;12.98;9.68;;;11.80;96.70;;;;;;4975840;28;20700;-78
2020/12/15 12:56:08;;;;;;;13.48;9.65;;;11.80;96.70;;;;;;4990576;28;20065;-79
2020/12/15 12:58:36;;;;;;;11.65;9.27;;;11.60;96.70;;;;;;4977156;28;20039;-88
2020/12/15 13:01:04;;;;;;;13.00;9.60;;;11.50;96.70;;;;;;4962437;28;20631;-80
2020/12/15 13:03:31;;;;;;;12.15;9.82;;;11.40;96.70;;;;;;4959496;28;20079;-78
2020/12/15 13:05:59;;;;;;;13.07;9.70;;;11.20;96.70;;;;;;4975382;28;20535;-79